sensor_id;sensor_type;location;lat;lon;timestamp;P1;durP1;ratioP1;P2;durP2;ratioP2
74064;SDS011;62421;51.412;5.432;2022-08-21T00:00:12;12.00;;;5.60;;
74064;SDS011;62421;51.412;5.432;2022-08-21T00:02:47;13.23;;;5.68;;
74064;SDS011;62421;51.412;5.432;2022-08-21T00:05:17;12.07;;;6.03;;
74064;SDS011;62421;51.412;5.432;2022-08-21T00:07:43;9.63;;;5.47;;
74064;SDS011;62421;51.412;5.432;2022-08-21T00:10:09;10.27;;;5.77;;
74064;SDS011;62421;51.412;5.432;2022-08-21T00:12:34;11.80;;;6.22;;
74064;SDS011;62421;51.412;5.432;2022-08-21T00:15:00;10.13;;;6.00;;
74064;SDS011;62421;51.412;5.432;2022-08-21T00:17:25;11.87;;;6.00;;
74064;SDS011;62421;51.412;5.432;2022-08-21T00:19:51;11.40;;;6.27;;
74064;SDS011;62421;51.412;5.432;2022-08-21T00:22:16;11.93;;;6.40;;
74064;SDS011;62421;51.412;5.432;2022-08-21T00:24:42;12.85;;;5.93;;
74064;SDS011;62421;51.412;5.432;2022-08-21T00:27:07;11.57;;;6.10;;
74064;SDS011;62421;51.412;5.432;2022-08-21T00:29:33;10.17;;;6.37;;
74064;SDS011;62421;51.412;5.432;2022-08-21T00:31:58;10.63;;;5.50;;
74064;SDS011;62421;51.412;5.432;2022-08-21T00:34:23;10.43;;;5.80;;
74064;SDS011;62421;51.412;5.432;2022-08-21T00:36:49;12.97;;;6.40;;
74064;SDS011;62421;51.412;5.432;2022-08-21T00:39:15;12.40;;;6.27;;
74064;SDS011;62421;51.412;5.432;2022-08-21T00:41:41;12.40;;;7.40;;
74064;SDS011;62421;51.412;5.432;2022-08-21T00:44:08;12.63;;;6.97;;
74064;SDS011;62421;51.412;5.432;2022-08-21T00:46:35;13.40;;;6.85;;
74064;SDS011;62421;51.412;5.432;2022-08-21T00:49:02;14.13;;;7.00;;
74064;SDS011;62421;51.412;5.432;2022-08-21T00:51:37;13.80;;;7.30;;
74064;SDS011;62421;51.412;5.432;2022-08-21T00:54:06;12.13;;;6.87;;
74064;SDS011;62421;51.412;5.432;2022-08-21T00:56:33;13.80;;;6.70;;
74064;SDS011;62421;51.412;5.432;2022-08-21T00:58:59;12.43;;;6.72;;
74064;SDS011;62421;51.412;5.432;2022-08-21T01:01:26;12.32;;;6.50;;
74064;SDS011;62421;51.412;5.432;2022-08-21T01:03:52;10.50;;;6.43;;
74064;SDS011;62421;51.412;5.432;2022-08-21T01:06:17;11.48;;;6.53;;
74064;SDS011;62421;51.412;5.432;2022-08-21T01:08:43;17.37;;;7.17;;
74064;SDS011;62421;51.412;5.432;2022-08-21T01:11:08;12.73;;;6.77;;
74064;SDS011;62421;51.412;5.432;2022-08-21T01:13:35;14.25;;;6.68;;
74064;SDS011;62421;51.412;5.432;2022-08-21T01:16:02;15.90;;;7.03;;
74064;SDS011;62421;51.412;5.432;2022-08-21T01:18:30;11.65;;;7.38;;
74064;SDS011;62421;51.412;5.432;2022-08-21T01:20:58;10.87;;;6.50;;
74064;SDS011;62421;51.412;5.432;2022-08-21T01:23:25;10.73;;;7.10;;
74064;SDS011;62421;51.412;5.432;2022-08-21T01:25:51;11.20;;;6.10;;
74064;SDS011;62421;51.412;5.432;2022-08-21T01:28:16;10.73;;;6.80;;
74064;SDS011;62421;51.412;5.432;2022-08-21T01:30:42;9.90;;;7.00;;
74064;SDS011;62421;51.412;5.432;2022-08-21T01:33:08;10.70;;;6.95;;
74064;SDS011;62421;51.412;5.432;2022-08-21T01:35:34;12.35;;;7.70;;
74064;SDS011;62421;51.412;5.432;2022-08-21T01:38:00;16.03;;;7.67;;
74064;SDS011;62421;51.412;5.432;2022-08-21T01:40:25;11.97;;;7.53;;
74064;SDS011;62421;51.412;5.432;2022-08-21T01:42:51;15.82;;;7.10;;
74064;SDS011;62421;51.412;5.432;2022-08-21T01:45:18;12.65;;;7.63;;
74064;SDS011;62421;51.412;5.432;2022-08-21T01:47:44;14.50;;;7.80;;
74064;SDS011;62421;51.412;5.432;2022-08-21T01:50:11;11.82;;;7.15;;
74064;SDS011;62421;51.412;5.432;2022-08-21T01:52:38;14.65;;;8.35;;
74064;SDS011;62421;51.412;5.432;2022-08-21T01:55:04;13.52;;;8.38;;
74064;SDS011;62421;51.412;5.432;2022-08-21T01:57:35;15.27;;;8.00;;
74064;SDS011;62421;51.412;5.432;2022-08-21T02:00:01;12.65;;;7.72;;
74064;SDS011;62421;51.412;5.432;2022-08-21T02:02:29;15.65;;;8.13;;
74064;SDS011;62421;51.412;5.432;2022-08-21T02:04:54;13.70;;;7.90;;
74064;SDS011;62421;51.412;5.432;2022-08-21T02:07:19;17.07;;;8.67;;
74064;SDS011;62421;51.412;5.432;2022-08-21T02:09:46;11.55;;;7.90;;
74064;SDS011;62421;51.412;5.432;2022-08-21T02:12:11;14.70;;;8.10;;
74064;SDS011;62421;51.412;5.432;2022-08-21T02:14:37;15.27;;;8.45;;
74064;SDS011;62421;51.412;5.432;2022-08-21T02:17:03;14.60;;;8.60;;
74064;SDS011;62421;51.412;5.432;2022-08-21T02:19:29;15.63;;;8.07;;
74064;SDS011;62421;51.412;5.432;2022-08-21T02:21:54;16.83;;;8.65;;
74064;SDS011;62421;51.412;5.432;2022-08-21T02:24:19;13.57;;;8.27;;
74064;SDS011;62421;51.412;5.432;2022-08-21T02:26:45;13.60;;;8.97;;
74064;SDS011;62421;51.412;5.432;2022-08-21T02:29:10;14.53;;;8.63;;
74064;SDS011;62421;51.412;5.432;2022-08-21T02:31:35;10.90;;;8.40;;
74064;SDS011;62421;51.412;5.432;2022-08-21T02:34:01;15.63;;;8.73;;
74064;SDS011;62421;51.412;5.432;2022-08-21T02:36:26;14.60;;;9.13;;
74064;SDS011;62421;51.412;5.432;2022-08-21T02:38:52;14.32;;;8.60;;
74064;SDS011;62421;51.412;5.432;2022-08-21T02:41:18;13.23;;;9.10;;
74064;SDS011;62421;51.412;5.432;2022-08-21T02:43:45;13.93;;;9.37;;
74064;SDS011;62421;51.412;5.432;2022-08-21T02:46:12;16.25;;;9.25;;
74064;SDS011;62421;51.412;5.432;2022-08-21T02:48:41;14.27;;;8.95;;
74064;SDS011;62421;51.412;5.432;2022-08-21T02:51:11;15.60;;;9.70;;
74064;SDS011;62421;51.412;5.432;2022-08-21T02:53:39;12.25;;;9.20;;
74064;SDS011;62421;51.412;5.432;2022-08-21T02:56:08;12.68;;;8.60;;
74064;SDS011;62421;51.412;5.432;2022-08-21T02:58:38;15.95;;;9.10;;
74064;SDS011;62421;51.412;5.432;2022-08-21T03:01:06;17.52;;;8.90;;
74064;SDS011;62421;51.412;5.432;2022-08-21T03:03:34;13.67;;;9.13;;
74064;SDS011;62421;51.412;5.432;2022-08-21T03:06:01;17.83;;;8.93;;
74064;SDS011;62421;51.412;5.432;2022-08-21T03:08:27;13.13;;;9.23;;
74064;SDS011;62421;51.412;5.432;2022-08-21T03:10:53;15.03;;;9.47;;
74064;SDS011;62421;51.412;5.432;2022-08-21T03:13:19;13.38;;;9.15;;
74064;SDS011;62421;51.412;5.432;2022-08-21T03:15:46;16.65;;;9.27;;
74064;SDS011;62421;51.412;5.432;2022-08-21T03:18:12;14.65;;;9.23;;
74064;SDS011;62421;51.412;5.432;2022-08-21T03:20:38;15.63;;;9.57;;
74064;SDS011;62421;51.412;5.432;2022-08-21T03:23:05;19.75;;;9.93;;
74064;SDS011;62421;51.412;5.432;2022-08-21T03:25:31;17.93;;;9.77;;
74064;SDS011;62421;51.412;5.432;2022-08-21T03:27:58;17.30;;;9.75;;
74064;SDS011;62421;51.412;5.432;2022-08-21T03:30:24;13.07;;;9.00;;
74064;SDS011;62421;51.412;5.432;2022-08-21T03:32:50;15.65;;;8.98;;
74064;SDS011;62421;51.412;5.432;2022-08-21T03:35:16;12.82;;;8.63;;
74064;SDS011;62421;51.412;5.432;2022-08-21T03:37:42;16.52;;;9.68;;
74064;SDS011;62421;51.412;5.432;2022-08-21T03:40:09;15.73;;;8.70;;
74064;SDS011;62421;51.412;5.432;2022-08-21T03:42:36;16.80;;;9.38;;
74064;SDS011;62421;51.412;5.432;2022-08-21T03:45:02;16.02;;;8.95;;
74064;SDS011;62421;51.412;5.432;2022-08-21T03:47:27;15.60;;;8.93;;
74064;SDS011;62421;51.412;5.432;2022-08-21T03:49:53;19.20;;;9.33;;
74064;SDS011;62421;51.412;5.432;2022-08-21T03:52:19;13.85;;;9.07;;
74064;SDS011;62421;51.412;5.432;2022-08-21T03:54:44;17.13;;;8.73;;
74064;SDS011;62421;51.412;5.432;2022-08-21T03:57:10;21.08;;;9.70;;
74064;SDS011;62421;51.412;5.432;2022-08-21T03:59:36;15.43;;;9.00;;
74064;SDS011;62421;51.412;5.432;2022-08-21T04:02:03;13.05;;;8.98;;
74064;SDS011;62421;51.412;5.432;2022-08-21T04:04:30;18.20;;;9.70;;
74064;SDS011;62421;51.412;5.432;2022-08-21T04:06:56;16.97;;;9.00;;
74064;SDS011;62421;51.412;5.432;2022-08-21T04:09:22;15.98;;;8.80;;
74064;SDS011;62421;51.412;5.432;2022-08-21T04:11:48;14.23;;;8.90;;
74064;SDS011;62421;51.412;5.432;2022-08-21T04:14:13;16.52;;;8.90;;
74064;SDS011;62421;51.412;5.432;2022-08-21T04:16:40;17.73;;;8.97;;
74064;SDS011;62421;51.412;5.432;2022-08-21T04:19:06;15.88;;;8.63;;
74064;SDS011;62421;51.412;5.432;2022-08-21T04:21:32;17.52;;;8.98;;
74064;SDS011;62421;51.412;5.432;2022-08-21T04:23:58;17.33;;;8.60;;
74064;SDS011;62421;51.412;5.432;2022-08-21T04:26:24;19.20;;;9.67;;
74064;SDS011;62421;51.412;5.432;2022-08-21T04:28:50;18.08;;;8.82;;
74064;SDS011;62421;51.412;5.432;2022-08-21T04:31:16;17.33;;;8.95;;
74064;SDS011;62421;51.412;5.432;2022-08-21T04:33:41;26.15;;;9.15;;
74064;SDS011;62421;51.412;5.432;2022-08-21T04:36:06;14.37;;;8.03;;
74064;SDS011;62421;51.412;5.432;2022-08-21T04:38:32;15.43;;;8.00;;
74064;SDS011;62421;51.412;5.432;2022-08-21T04:40:58;14.50;;;8.20;;
74064;SDS011;62421;51.412;5.432;2022-08-21T04:43:24;11.50;;;7.67;;
74064;SDS011;62421;51.412;5.432;2022-08-21T04:45:50;15.85;;;7.93;;
74064;SDS011;62421;51.412;5.432;2022-08-21T04:48:17;16.43;;;7.47;;
74064;SDS011;62421;51.412;5.432;2022-08-21T04:50:47;18.88;;;8.00;;
74064;SDS011;62421;51.412;5.432;2022-08-21T04:53:22;12.80;;;7.20;;
74064;SDS011;62421;51.412;5.432;2022-08-21T04:55:51;16.75;;;8.38;;
74064;SDS011;62421;51.412;5.432;2022-08-21T04:58:20;14.05;;;8.60;;
74064;SDS011;62421;51.412;5.432;2022-08-21T05:00:47;13.80;;;7.03;;
74064;SDS011;62421;51.412;5.432;2022-08-21T05:03:13;13.02;;;7.93;;
74064;SDS011;62421;51.412;5.432;2022-08-21T05:05:41;14.82;;;8.15;;
74064;SDS011;62421;51.412;5.432;2022-08-21T05:08:07;13.35;;;7.88;;
74064;SDS011;62421;51.412;5.432;2022-08-21T05:10:37;15.70;;;8.07;;
74064;SDS011;62421;51.412;5.432;2022-08-21T05:13:02;9.90;;;6.60;;
74064;SDS011;62421;51.412;5.432;2022-08-21T05:15:28;16.93;;;7.90;;
74064;SDS011;62421;51.412;5.432;2022-08-21T05:17:55;15.95;;;8.27;;
74064;SDS011;62421;51.412;5.432;2022-08-21T05:20:21;15.77;;;8.00;;
74064;SDS011;62421;51.412;5.432;2022-08-21T05:22:46;16.55;;;7.82;;
74064;SDS011;62421;51.412;5.432;2022-08-21T05:25:11;20.60;;;8.77;;
74064;SDS011;62421;51.412;5.432;2022-08-21T05:27:37;17.03;;;7.47;;
74064;SDS011;62421;51.412;5.432;2022-08-21T05:30:03;22.55;;;8.48;;
74064;SDS011;62421;51.412;5.432;2022-08-21T05:32:30;20.27;;;8.00;;
74064;SDS011;62421;51.412;5.432;2022-08-21T05:34:55;15.17;;;8.30;;
74064;SDS011;62421;51.412;5.432;2022-08-21T05:37:20;16.70;;;8.38;;
74064;SDS011;62421;51.412;5.432;2022-08-21T05:39:46;15.60;;;8.38;;
74064;SDS011;62421;51.412;5.432;2022-08-21T05:42:11;15.03;;;7.77;;
74064;SDS011;62421;51.412;5.432;2022-08-21T05:44:37;15.80;;;8.70;;
74064;SDS011;62421;51.412;5.432;2022-08-21T05:47:05;17.40;;;8.20;;
74064;SDS011;62421;51.412;5.432;2022-08-21T05:49:33;16.38;;;7.82;;
74064;SDS011;62421;51.412;5.432;2022-08-21T05:51:58;18.03;;;8.47;;
74064;SDS011;62421;51.412;5.432;2022-08-21T05:54:24;12.82;;;7.68;;
74064;SDS011;62421;51.412;5.432;2022-08-21T05:56:50;18.23;;;7.33;;
74064;SDS011;62421;51.412;5.432;2022-08-21T05:59:16;21.77;;;9.10;;
74064;SDS011;62421;51.412;5.432;2022-08-21T06:01:43;16.63;;;8.70;;
74064;SDS011;62421;51.412;5.432;2022-08-21T06:04:10;15.47;;;8.10;;
74064;SDS011;62421;51.412;5.432;2022-08-21T06:06:35;16.00;;;7.63;;
74064;SDS011;62421;51.412;5.432;2022-08-21T06:09:01;17.90;;;8.37;;
74064;SDS011;62421;51.412;5.432;2022-08-21T06:11:27;14.40;;;7.68;;
74064;SDS011;62421;51.412;5.432;2022-08-21T06:13:52;17.80;;;8.20;;
74064;SDS011;62421;51.412;5.432;2022-08-21T06:16:17;18.40;;;7.87;;
74064;SDS011;62421;51.412;5.432;2022-08-21T06:18:43;17.77;;;8.13;;
74064;SDS011;62421;51.412;5.432;2022-08-21T06:21:10;16.65;;;8.40;;
74064;SDS011;62421;51.412;5.432;2022-08-21T06:23:36;16.33;;;8.32;;
74064;SDS011;62421;51.412;5.432;2022-08-21T06:26:02;14.63;;;7.50;;
74064;SDS011;62421;51.412;5.432;2022-08-21T06:28:29;19.80;;;7.10;;
74064;SDS011;62421;51.412;5.432;2022-08-21T06:30:55;14.77;;;6.82;;
74064;SDS011;62421;51.412;5.432;2022-08-21T06:33:21;14.47;;;6.93;;
74064;SDS011;62421;51.412;5.432;2022-08-21T06:35:46;21.63;;;6.40;;
74064;SDS011;62421;51.412;5.432;2022-08-21T06:38:12;19.03;;;6.60;;
74064;SDS011;62421;51.412;5.432;2022-08-21T06:40:37;17.70;;;6.63;;
74064;SDS011;62421;51.412;5.432;2022-08-21T06:43:10;15.37;;;6.60;;
74064;SDS011;62421;51.412;5.432;2022-08-21T06:45:37;15.57;;;5.88;;
74064;SDS011;62421;51.412;5.432;2022-08-21T06:48:03;14.27;;;6.30;;
74064;SDS011;62421;51.412;5.432;2022-08-21T06:50:29;20.85;;;6.22;;
74064;SDS011;62421;51.412;5.432;2022-08-21T06:52:59;21.43;;;6.07;;
74064;SDS011;62421;51.412;5.432;2022-08-21T06:55:33;14.70;;;5.95;;
74064;SDS011;62421;51.412;5.432;2022-08-21T06:57:59;14.82;;;4.90;;
74064;SDS011;62421;51.412;5.432;2022-08-21T07:00:24;20.30;;;5.33;;
74064;SDS011;62421;51.412;5.432;2022-08-21T07:02:50;18.27;;;4.72;;
74064;SDS011;62421;51.412;5.432;2022-08-21T07:05:15;16.67;;;4.43;;
74064;SDS011;62421;51.412;5.432;2022-08-21T07:07:41;17.98;;;4.60;;
74064;SDS011;62421;51.412;5.432;2022-08-21T07:10:07;14.70;;;4.20;;
74064;SDS011;62421;51.412;5.432;2022-08-21T07:12:32;21.67;;;4.60;;
74064;SDS011;62421;51.412;5.432;2022-08-21T07:14:58;19.35;;;4.30;;
74064;SDS011;62421;51.412;5.432;2022-08-21T07:17:23;15.05;;;4.75;;
74064;SDS011;62421;51.412;5.432;2022-08-21T07:19:49;18.33;;;5.23;;
74064;SDS011;62421;51.412;5.432;2022-08-21T07:22:16;23.90;;;4.70;;
74064;SDS011;62421;51.412;5.432;2022-08-21T07:24:45;14.93;;;4.10;;
74064;SDS011;62421;51.412;5.432;2022-08-21T07:27:10;18.45;;;3.55;;
74064;SDS011;62421;51.412;5.432;2022-08-21T07:29:35;17.77;;;4.43;;
74064;SDS011;62421;51.412;5.432;2022-08-21T07:32:01;22.83;;;6.07;;
74064;SDS011;62421;51.412;5.432;2022-08-21T07:34:26;21.50;;;3.83;;
74064;SDS011;62421;51.412;5.432;2022-08-21T07:36:53;13.88;;;3.90;;
74064;SDS011;62421;51.412;5.432;2022-08-21T07:39:18;19.70;;;5.17;;
74064;SDS011;62421;51.412;5.432;2022-08-21T07:41:43;22.57;;;4.70;;
74064;SDS011;62421;51.412;5.432;2022-08-21T07:44:09;21.60;;;4.30;;
74064;SDS011;62421;51.412;5.432;2022-08-21T07:46:34;19.40;;;4.17;;
74064;SDS011;62421;51.412;5.432;2022-08-21T07:48:59;20.92;;;3.75;;
74064;SDS011;62421;51.412;5.432;2022-08-21T07:51:25;20.80;;;4.77;;
74064;SDS011;62421;51.412;5.432;2022-08-21T07:53:53;17.40;;;4.30;;
74064;SDS011;62421;51.412;5.432;2022-08-21T07:56:19;15.23;;;4.68;;
74064;SDS011;62421;51.412;5.432;2022-08-21T07:58:46;18.15;;;4.15;;
74064;SDS011;62421;51.412;5.432;2022-08-21T08:01:12;19.23;;;4.82;;
74064;SDS011;62421;51.412;5.432;2022-08-21T08:03:38;23.93;;;4.33;;
74064;SDS011;62421;51.412;5.432;2022-08-21T08:06:04;22.27;;;4.47;;
74064;SDS011;62421;51.412;5.432;2022-08-21T08:08:30;17.43;;;4.30;;
74064;SDS011;62421;51.412;5.432;2022-08-21T08:10:55;17.55;;;3.47;;
74064;SDS011;62421;51.412;5.432;2022-08-21T08:13:21;21.85;;;4.07;;
74064;SDS011;62421;51.412;5.432;2022-08-21T08:15:47;22.87;;;4.57;;
74064;SDS011;62421;51.412;5.432;2022-08-21T08:18:12;17.20;;;3.33;;
74064;SDS011;62421;51.412;5.432;2022-08-21T08:20:38;18.67;;;3.65;;
74064;SDS011;62421;51.412;5.432;2022-08-21T08:23:04;21.17;;;4.00;;
74064;SDS011;62421;51.412;5.432;2022-08-21T08:25:29;20.50;;;3.57;;
74064;SDS011;62421;51.412;5.432;2022-08-21T08:27:54;20.73;;;3.50;;
74064;SDS011;62421;51.412;5.432;2022-08-21T08:30:20;19.93;;;3.50;;
74064;SDS011;62421;51.412;5.432;2022-08-21T08:32:48;16.60;;;3.63;;
74064;SDS011;62421;51.412;5.432;2022-08-21T08:35:14;14.98;;;3.70;;
74064;SDS011;62421;51.412;5.432;2022-08-21T08:37:41;20.10;;;4.10;;
74064;SDS011;62421;51.412;5.432;2022-08-21T08:40:14;20.30;;;2.88;;
74064;SDS011;62421;51.412;5.432;2022-08-21T08:42:48;19.15;;;3.75;;
74064;SDS011;62421;51.412;5.432;2022-08-21T08:45:16;17.42;;;3.28;;
74064;SDS011;62421;51.412;5.432;2022-08-21T08:47:49;21.77;;;4.05;;
74064;SDS011;62421;51.412;5.432;2022-08-21T08:50:28;18.00;;;4.17;;
74064;SDS011;62421;51.412;5.432;2022-08-21T08:53:05;24.40;;;4.68;;
74064;SDS011;62421;51.412;5.432;2022-08-21T08:55:36;16.73;;;3.72;;
74064;SDS011;62421;51.412;5.432;2022-08-21T08:58:05;16.88;;;3.67;;
74064;SDS011;62421;51.412;5.432;2022-08-21T09:00:31;13.48;;;3.15;;
74064;SDS011;62421;51.412;5.432;2022-08-21T09:02:57;18.53;;;4.40;;
74064;SDS011;62421;51.412;5.432;2022-08-21T09:05:29;18.50;;;3.63;;
74064;SDS011;62421;51.412;5.432;2022-08-21T09:08:46;16.27;;;3.72;;
74064;SDS011;62421;51.412;5.432;2022-08-21T09:14:05;16.30;;;3.63;;
74064;SDS011;62421;51.412;5.432;2022-08-21T09:16:39;13.30;;;3.75;;
74064;SDS011;62421;51.412;5.432;2022-08-21T09:19:32;11.15;;;2.95;;
74064;SDS011;62421;51.412;5.432;2022-08-21T09:27:33;15.37;;;3.00;;
74064;SDS011;62421;51.412;5.432;2022-08-21T09:29:59;16.73;;;2.83;;
74064;SDS011;62421;51.412;5.432;2022-08-21T09:32:25;13.25;;;2.70;;
74064;SDS011;62421;51.412;5.432;2022-08-21T09:37:24;14.27;;;2.60;;
74064;SDS011;62421;51.412;5.432;2022-08-21T09:39:51;10.90;;;2.28;;
74064;SDS011;62421;51.412;5.432;2022-08-21T09:42:21;12.57;;;2.17;;
74064;SDS011;62421;51.412;5.432;2022-08-21T09:45:12;13.40;;;2.30;;
74064;SDS011;62421;51.412;5.432;2022-08-21T09:47:41;12.10;;;1.77;;
74064;SDS011;62421;51.412;5.432;2022-08-21T09:50:09;11.90;;;1.90;;
74064;SDS011;62421;51.412;5.432;2022-08-21T09:52:45;15.88;;;2.30;;
74064;SDS011;62421;51.412;5.432;2022-08-21T09:55:30;17.15;;;3.03;;
74064;SDS011;62421;51.412;5.432;2022-08-21T09:58:14;9.25;;;2.03;;
74064;SDS011;62421;51.412;5.432;2022-08-21T10:00:41;11.35;;;2.28;;
74064;SDS011;62421;51.412;5.432;2022-08-21T10:03:15;12.57;;;2.50;;
74064;SDS011;62421;51.412;5.432;2022-08-21T10:05:50;12.57;;;2.75;;
74064;SDS011;62421;51.412;5.432;2022-08-21T10:08:21;11.85;;;2.50;;
74064;SDS011;62421;51.412;5.432;2022-08-21T10:26:38;7.28;;;1.25;;
74064;SDS011;62421;51.412;5.432;2022-08-21T10:29:13;13.93;;;1.95;;
74064;SDS011;62421;51.412;5.432;2022-08-21T10:37:15;8.05;;;1.70;;
74064;SDS011;62421;51.412;5.432;2022-08-21T10:48:12;12.18;;;2.47;;
74064;SDS011;62421;51.412;5.432;2022-08-21T10:51:20;12.00;;;2.42;;
74064;SDS011;62421;51.412;5.432;2022-08-21T10:54:05;10.93;;;1.87;;
74064;SDS011;62421;51.412;5.432;2022-08-21T10:56:40;10.40;;;2.10;;
74064;SDS011;62421;51.412;5.432;2022-08-21T10:59:15;9.65;;;2.03;;
74064;SDS011;62421;51.412;5.432;2022-08-21T11:04:18;11.50;;;2.30;;
74064;SDS011;62421;51.412;5.432;2022-08-21T11:06:46;11.00;;;2.07;;
74064;SDS011;62421;51.412;5.432;2022-08-21T11:09:20;10.98;;;2.05;;
74064;SDS011;62421;51.412;5.432;2022-08-21T11:11:50;11.00;;;2.75;;
74064;SDS011;62421;51.412;5.432;2022-08-21T11:14:24;7.32;;;2.25;;
74064;SDS011;62421;51.412;5.432;2022-08-21T11:17:09;10.77;;;2.50;;
74064;SDS011;62421;51.412;5.432;2022-08-21T11:24:58;8.50;;;2.17;;
74064;SDS011;62421;51.412;5.432;2022-08-21T11:27:54;11.80;;;2.33;;
74064;SDS011;62421;51.412;5.432;2022-08-21T11:30:24;9.02;;;2.60;;
74064;SDS011;62421;51.412;5.432;2022-08-21T11:33:09;9.07;;;2.60;;
74064;SDS011;62421;51.412;5.432;2022-08-21T11:38:31;12.93;;;2.38;;
74064;SDS011;62421;51.412;5.432;2022-08-21T11:43:36;7.33;;;2.00;;
74064;SDS011;62421;51.412;5.432;2022-08-21T11:54:23;12.00;;;2.55;;
74064;SDS011;62421;51.412;5.432;2022-08-21T11:57:03;9.98;;;2.40;;
74064;SDS011;62421;51.412;5.432;2022-08-21T11:59:37;11.15;;;2.22;;
74064;SDS011;62421;51.412;5.432;2022-08-21T12:02:09;13.80;;;2.50;;
74064;SDS011;62421;51.412;5.432;2022-08-21T12:04:53;8.98;;;2.53;;
74064;SDS011;62421;51.412;5.432;2022-08-21T12:07:31;9.75;;;2.30;;
74064;SDS011;62421;51.412;5.432;2022-08-21T12:10:04;9.80;;;2.00;;
74064;SDS011;62421;51.412;5.432;2022-08-21T12:12:35;8.35;;;2.22;;
74064;SDS011;62421;51.412;5.432;2022-08-21T12:17:40;9.18;;;2.10;;
74064;SDS011;62421;51.412;5.432;2022-08-21T12:20:32;11.75;;;2.60;;
74064;SDS011;62421;51.412;5.432;2022-08-21T12:25:41;9.02;;;1.88;;
74064;SDS011;62421;51.412;5.432;2022-08-21T12:28:13;10.70;;;2.30;;
74064;SDS011;62421;51.412;5.432;2022-08-21T12:30:46;9.75;;;2.60;;
74064;SDS011;62421;51.412;5.432;2022-08-21T12:33:20;9.02;;;2.30;;
74064;SDS011;62421;51.412;5.432;2022-08-21T12:35:49;7.80;;;2.05;;
74064;SDS011;62421;51.412;5.432;2022-08-21T12:38:18;12.00;;;3.47;;
74064;SDS011;62421;51.412;5.432;2022-08-21T12:41:00;8.30;;;2.33;;
74064;SDS011;62421;51.412;5.432;2022-08-21T12:43:35;9.52;;;2.60;;
74064;SDS011;62421;51.412;5.432;2022-08-21T12:46:03;7.55;;;2.40;;
74064;SDS011;62421;51.412;5.432;2022-08-21T12:48:41;7.13;;;2.55;;
74064;SDS011;62421;51.412;5.432;2022-08-21T12:53:46;10.25;;;2.85;;
74064;SDS011;62421;51.412;5.432;2022-08-21T12:56:15;10.68;;;2.67;;
74064;SDS011;62421;51.412;5.432;2022-08-21T12:59:03;14.50;;;3.20;;
74064;SDS011;62421;51.412;5.432;2022-08-21T13:01:34;11.38;;;2.67;;
74064;SDS011;62421;51.412;5.432;2022-08-21T13:04:10;9.63;;;2.77;;
74064;SDS011;62421;51.412;5.432;2022-08-21T13:06:42;13.50;;;3.25;;
74064;SDS011;62421;51.412;5.432;2022-08-21T13:09:12;11.57;;;2.90;;
74064;SDS011;62421;51.412;5.432;2022-08-21T13:11:42;13.27;;;3.65;;
74064;SDS011;62421;51.412;5.432;2022-08-21T13:14:14;11.45;;;2.67;;
74064;SDS011;62421;51.412;5.432;2022-08-21T13:16:48;10.60;;;2.73;;
74064;SDS011;62421;51.412;5.432;2022-08-21T13:19:18;11.63;;;3.30;;
74064;SDS011;62421;51.412;5.432;2022-08-21T13:21:45;14.20;;;3.42;;
74064;SDS011;62421;51.412;5.432;2022-08-21T13:24:15;10.90;;;2.83;;
74064;SDS011;62421;51.412;5.432;2022-08-21T13:26:40;10.50;;;2.85;;
74064;SDS011;62421;51.412;5.432;2022-08-21T13:29:07;12.77;;;3.58;;
74064;SDS011;62421;51.412;5.432;2022-08-21T13:31:36;9.65;;;3.22;;
74064;SDS011;62421;51.412;5.432;2022-08-21T13:34:04;14.23;;;3.50;;
74064;SDS011;62421;51.412;5.432;2022-08-21T13:36:31;12.77;;;3.28;;
74064;SDS011;62421;51.412;5.432;2022-08-21T13:38:59;16.20;;;3.85;;
74064;SDS011;62421;51.412;5.432;2022-08-21T13:41:26;10.77;;;3.30;;
74064;SDS011;62421;51.412;5.432;2022-08-21T13:43:58;15.23;;;4.13;;
74064;SDS011;62421;51.412;5.432;2022-08-21T13:46:26;13.30;;;4.10;;
74064;SDS011;62421;51.412;5.432;2022-08-21T13:48:55;14.63;;;3.28;;
74064;SDS011;62421;51.412;5.432;2022-08-21T13:51:21;11.23;;;4.05;;
74064;SDS011;62421;51.412;5.432;2022-08-21T13:53:49;10.25;;;3.90;;
74064;SDS011;62421;51.412;5.432;2022-08-21T13:59:05;12.45;;;4.55;;
74064;SDS011;62421;51.412;5.432;2022-08-21T14:01:36;9.38;;;3.67;;
74064;SDS011;62421;51.412;5.432;2022-08-21T14:05:16;11.95;;;3.20;;
74064;SDS011;62421;51.412;5.432;2022-08-21T14:07:38;14.50;;;3.92;;
74064;SDS011;62421;51.412;5.432;2022-08-21T14:10:26;12.38;;;3.83;;
74064;SDS011;62421;51.412;5.432;2022-08-21T14:12:56;10.48;;;3.20;;
74064;SDS011;62421;51.412;5.432;2022-08-21T14:15:27;10.90;;;3.43;;
74064;SDS011;62421;51.412;5.432;2022-08-21T14:18:06;14.90;;;3.42;;
74064;SDS011;62421;51.412;5.432;2022-08-21T14:20:35;12.02;;;3.38;;
74064;SDS011;62421;51.412;5.432;2022-08-21T14:23:01;12.00;;;3.83;;
74064;SDS011;62421;51.412;5.432;2022-08-21T14:25:36;12.45;;;3.95;;
74064;SDS011;62421;51.412;5.432;2022-08-21T14:30:29;11.93;;;3.47;;
74064;SDS011;62421;51.412;5.432;2022-08-21T14:33:03;10.77;;;3.13;;
74064;SDS011;62421;51.412;5.432;2022-08-21T14:35:34;13.30;;;2.97;;
74064;SDS011;62421;51.412;5.432;2022-08-21T14:37:59;12.82;;;3.60;;
74064;SDS011;62421;51.412;5.432;2022-08-21T14:40:25;13.20;;;3.73;;
74064;SDS011;62421;51.412;5.432;2022-08-21T14:42:50;16.10;;;3.40;;
74064;SDS011;62421;51.412;5.432;2022-08-21T14:45:17;11.02;;;3.25;;
74064;SDS011;62421;51.412;5.432;2022-08-21T14:47:45;14.73;;;4.15;;
74064;SDS011;62421;51.412;5.432;2022-08-21T14:50:11;11.87;;;3.90;;
74064;SDS011;62421;51.412;5.432;2022-08-21T14:52:38;9.40;;;2.95;;
74064;SDS011;62421;51.412;5.432;2022-08-21T14:55:05;14.05;;;4.32;;
74064;SDS011;62421;51.412;5.432;2022-08-21T14:57:31;11.73;;;3.30;;
74064;SDS011;62421;51.412;5.432;2022-08-21T14:59:58;13.52;;;4.10;;
74064;SDS011;62421;51.412;5.432;2022-08-21T15:02:24;14.07;;;3.33;;
74064;SDS011;62421;51.412;5.432;2022-08-21T15:04:50;16.00;;;4.33;;
74064;SDS011;62421;51.412;5.432;2022-08-21T15:07:15;12.93;;;3.77;;
74064;SDS011;62421;51.412;5.432;2022-08-21T15:09:40;12.50;;;3.50;;
74064;SDS011;62421;51.412;5.432;2022-08-21T15:12:05;12.27;;;2.60;;
74064;SDS011;62421;51.412;5.432;2022-08-21T15:14:33;16.53;;;3.90;;
74064;SDS011;62421;51.412;5.432;2022-08-21T15:17:00;14.75;;;3.85;;
74064;SDS011;62421;51.412;5.432;2022-08-21T15:19:28;11.63;;;3.60;;
74064;SDS011;62421;51.412;5.432;2022-08-21T15:21:54;14.00;;;3.70;;
74064;SDS011;62421;51.412;5.432;2022-08-21T15:24:20;14.48;;;4.25;;
74064;SDS011;62421;51.412;5.432;2022-08-21T15:26:46;12.97;;;3.90;;
74064;SDS011;62421;51.412;5.432;2022-08-21T15:29:12;10.95;;;3.55;;
74064;SDS011;62421;51.412;5.432;2022-08-21T15:31:48;11.93;;;3.87;;
74064;SDS011;62421;51.412;5.432;2022-08-21T15:34:17;12.20;;;3.65;;
74064;SDS011;62421;51.412;5.432;2022-08-21T15:36:42;12.97;;;3.63;;
74064;SDS011;62421;51.412;5.432;2022-08-21T15:39:08;12.63;;;3.70;;
74064;SDS011;62421;51.412;5.432;2022-08-21T15:41:33;13.93;;;4.03;;
74064;SDS011;62421;51.412;5.432;2022-08-21T15:43:58;12.90;;;3.03;;
74064;SDS011;62421;51.412;5.432;2022-08-21T15:46:23;11.83;;;3.70;;
74064;SDS011;62421;51.412;5.432;2022-08-21T15:48:49;15.10;;;3.80;;
74064;SDS011;62421;51.412;5.432;2022-08-21T15:51:15;12.53;;;3.37;;
74064;SDS011;62421;51.412;5.432;2022-08-21T15:53:42;15.45;;;3.63;;
74064;SDS011;62421;51.412;5.432;2022-08-21T15:56:20;13.37;;;3.13;;
74064;SDS011;62421;51.412;5.432;2022-08-21T15:58:48;16.70;;;2.95;;